Time;durP1;ratioP1;P1;durP2;ratioP2;P2;SDS_P1;SDS_P2;PMS_P1;PMS_P2;Temp;Humidity;BMP_temperature;BMP_pressure;BME280_temperature;BME280_humidity;BME280_pressure;Samples;Min_cycle;Max_cycle;Signal;HPM_P1;HPM_P2
2023/04/09 00:01:06;;;;;;;;;31.25;29.25;;;;;-147.17;100.00;-9717.81;4989872;28;50962;-50
2023/04/09 00:03:32;;;;;;;;;36.25;34.00;;;;;-147.17;100.00;-9717.81;4990644;28;51218;-52
2023/04/09 00:05:58;;;;;;;;;32.25;30.75;;;;;-147.17;100.00;-9717.81;4986759;28;52264;-49
2023/04/09 00:08:23;;;;;;;;;30.00;29.25;;;;;-147.17;100.00;-9965.91;4992112;28;51468;-49
2023/04/09 00:10:50;;;;;;;;;31.50;29.25;;;;;-147.17;100.00;-10214.00;4991157;28;51183;-49
2023/04/09 00:13:15;;;;;;;;;32.25;30.50;;;;;-147.17;100.00;-10462.09;4982234;28;51269;-51
2023/04/09 00:15:41;;;;;;;;;33.75;32.25;;;;;-147.17;100.00;-10710.16;4985255;28;51381;-50
2023/04/09 00:18:06;;;;;;;;;38.25;33.00;;;;;-147.17;100.00;-10958.19;4991837;28;51191;-51
2023/04/09 00:20:31;;;;;;;;;35.50;33.50;;;;;-147.17;100.00;-10958.19;4985256;28;51080;-51
2023/04/09 00:22:57;;;;;;;;;33.25;31.75;;;;;-147.17;100.00;-10958.19;4985377;28;51187;-50
2023/04/09 00:25:22;;;;;;;;;33.75;31.25;;;;;-147.17;100.00;-11206.22;4991407;28;52716;-50
2023/04/09 00:27:48;;;;;;;;;28.25;25.75;;;;;-147.17;100.00;-11454.25;4990188;28;51192;-48
2023/04/09 00:30:13;;;;;;;;;35.00;31.00;;;;;-147.17;100.00;-11454.25;4989683;28;51120;-48
2023/04/09 00:32:38;;;;;;;;;32.25;30.25;;;;;-147.17;100.00;-11702.25;4988546;28;51369;-48
2023/04/09 00:35:04;;;;;;;;;37.25;34.00;;;;;-147.17;100.00;-11454.25;4990514;28;55101;-51
2023/04/09 00:37:29;;;;;;;;;35.50;34.00;;;;;-147.17;100.00;-11454.25;4989703;28;50986;-49
2023/04/09 00:39:55;;;;;;;;;34.25;31.75;;;;;-147.17;100.00;-11702.25;4989756;28;50967;-48
2023/04/09 00:42:20;;;;;;;;;35.50;30.00;;;;;-147.17;100.00;-11950.22;4988318;28;51117;-49
2023/04/09 00:44:46;;;;;;;;;32.75;29.00;;;;;-147.17;100.00;-11950.22;4988034;28;52608;-48
2023/04/09 00:47:11;;;;;;;;;33.50;32.25;;;;;-147.17;100.00;-11950.22;4991800;28;51265;-48
2023/04/09 00:49:36;;;;;;;;;35.50;33.75;;;;;-147.17;100.00;-11950.22;4991727;28;51485;-49
2023/04/09 00:52:02;;;;;;;;;34.75;32.00;;;;;-147.17;100.00;-11950.22;4986235;28;51397;-51
2023/04/09 00:54:27;;;;;;;;;36.25;32.50;;;;;-147.17;100.00;-12198.19;4992305;28;51065;-48
2023/04/09 00:56:54;;;;;;;;;31.75;30.75;;;;;-147.17;100.00;-12198.19;4989674;28;51366;-54
2023/04/09 00:59:20;;;;;;;;;34.25;33.25;;;;;-147.17;100.00;-12694.06;4988847;28;51159;-50
2023/04/09 01:01:45;;;;;;;;;27.25;26.00;;;;;-147.17;100.00;-12694.06;4987587;28;51119;-49
2023/04/09 01:04:11;;;;;;;;;35.25;34.00;;;;;-147.17;100.00;-12694.06;4988335;28;51694;-49
2023/04/09 01:06:52;;;;;;;;;35.50;33.00;;;;;-147.17;100.00;-12694.06;4989704;28;51049;-49
2023/04/09 01:09:23;;;;;;;;;29.50;27.00;;;;;-147.17;100.00;-12694.06;4979774;28;51236;-51
2023/04/09 01:12:01;;;;;;;;;38.00;33.00;;;;;-147.17;100.00;-12941.97;4990568;28;51132;-47
2023/04/09 01:14:33;;;;;;;;;33.25;28.75;;;;;-147.17;100.00;-12941.97;4989853;28;51914;-49
2023/04/09 01:17:14;;;;;;;;;32.75;31.00;;;;;-147.17;100.00;-12941.97;4990475;28;51180;-49
2023/04/09 01:19:42;;;;;;;;;34.75;33.00;;;;;-147.17;100.00;-12941.97;4990925;28;51471;-50
2023/04/09 01:22:23;;;;;;;;;31.25;31.00;;;;;-147.17;100.00;-13189.88;4988445;28;51144;-51
2023/04/09 01:25:14;;;;;;;;;33.25;31.25;;;;;-147.17;100.00;-13437.75;4986835;28;52006;-51
2023/04/09 01:28:20;;;;;;;;;32.50;32.00;;;;;-147.17;100.00;-13189.88;4972273;28;51190;-51
2023/04/09 01:30:56;;;;;;;;;34.00;32.00;;;;;-147.17;100.00;-13189.88;4987801;28;51038;-49
2023/04/09 01:33:23;;;;;;;;;35.50;33.50;;;;;-147.17;100.00;-13189.88;4990169;28;51126;-50
2023/04/09 01:35:50;;;;;;;;;33.50;32.00;;;;;-147.17;100.00;-13437.75;4990017;28;52158;-47
2023/04/09 01:38:18;;;;;;;;;38.00;33.75;;;;;-147.17;100.00;-13437.75;4990677;28;51272;-49
2023/04/09 01:40:44;;;;;;;;;38.50;31.75;;;;;-147.17;100.00;-13437.75;4990154;28;50902;-51
2023/04/09 01:43:12;;;;;;;;;34.75;32.50;;;;;-147.17;100.00;-13437.75;4981342;28;51446;-49
2023/04/09 01:45:39;;;;;;;;;34.00;32.50;;;;;-147.17;100.00;-13437.75;4991493;28;52140;-49
2023/04/09 01:48:05;;;;;;;;;33.50;29.25;;;;;-147.17;100.00;-13685.63;4991459;28;51181;-49
2023/04/09 01:50:31;;;;;;;;;31.00;29.00;;;;;-147.17;100.00;-13685.63;4993256;28;51070;-50
2023/04/09 01:52:57;;;;;;;;;30.50;28.75;;;;;-147.17;100.00;-13685.63;4993263;28;51071;-50
2023/04/09 01:55:22;;;;;;;;;36.25;31.50;;;;;-147.17;100.00;-13685.63;4994928;28;52219;-49
2023/04/09 01:57:47;;;;;;;;;35.25;33.25;;;;;-147.17;100.00;-13933.50;4993248;28;51115;-51
2023/04/09 02:00:13;;;;;;;;;33.00;29.00;;;;;-147.17;100.00;-14181.31;4984033;28;51107;-51
2023/04/09 02:02:50;;;;;;;;;37.25;33.50;;;;;-147.17;100.00;-13933.50;4989838;28;54944;-50
2023/04/09 02:05:21;;;;;;;;;36.50;33.50;;;;;-147.17;100.00;-14181.31;4990842;28;51886;-49
2023/04/09 02:07:54;;;;;;;;;39.00;32.00;;;;;-147.17;100.00;-14429.16;4993198;28;50949;-50
2023/04/09 02:10:25;;;;;;;;;36.00;33.25;;;;;-147.17;100.00;-14429.16;4982200;28;51118;-48
2023/04/09 02:12:52;;;;;;;;;32.00;30.00;;;;;-147.17;100.00;-14676.94;4990060;28;52912;-47
2023/04/09 02:15:19;;;;;;;;;36.50;34.25;;;;;-147.17;100.00;-14676.94;4982143;28;52122;-51
2023/04/09 02:17:44;;;;;;;;;37.50;34.00;;;;;-147.17;100.00;-14676.94;4994622;28;51124;-51
2023/04/09 02:20:10;;;;;;;;;34.25;32.50;;;;;-147.17;100.00;-14924.75;4984211;28;51387;-50
2023/04/09 02:22:37;;;;;;;;;37.50;34.25;;;;;-147.17;100.00;-14924.75;4996441;28;51099;-48
2023/04/09 02:25:03;;;;;;;;;36.50;34.00;;;;;-147.17;100.00;-15172.50;4989806;28;51884;-49
2023/04/09 02:27:28;;;;;;;;;39.25;34.25;;;;;-147.17;100.00;-15172.50;4991885;28;51150;-49
2023/04/09 02:29:53;;;;;;;;;33.00;30.75;;;;;-147.17;100.00;-15172.50;4993029;28;50919;-51
2023/04/09 02:32:19;;;;;;;;;36.75;34.00;;;;;-147.17;100.00;-15172.50;4992087;28;51519;-52
2023/04/09 02:34:44;;;;;;;;;37.75;33.25;;;;;-147.17;100.00;-15172.50;4993238;28;52839;-51
2023/04/09 02:37:10;;;;;;;;;36.00;34.00;;;;;-147.17;100.00;-15420.25;4993961;28;51032;-48
2023/04/09 02:39:35;;;;;;;;;33.50;30.25;;;;;-147.17;100.00;-15420.25;4989840;28;51713;-49
2023/04/09 02:42:01;;;;;;;;;39.25;32.25;;;;;-147.17;100.00;-15668.00;4991802;28;51108;-50
2023/04/09 02:44:26;;;;;;;;;36.75;33.25;;;;;-147.17;100.00;-15668.00;4992210;28;52578;-50
2023/04/09 02:46:51;;;;;;;;;36.50;32.25;;;;;-147.17;100.00;-15668.00;4993375;28;50987;-49
2023/04/09 02:49:17;;;;;;;;;42.50;35.75;;;;;-147.17;100.00;-15915.72;4992806;28;51329;-51
2023/04/09 02:51:42;;;;;;;;;34.50;32.75;;;;;-147.17;100.00;-15915.72;4991446;28;51178;-49
2023/04/09 02:54:07;;;;;;;;;36.00;34.00;;;;;-147.17;100.00;-15915.72;4995784;28;51907;-51
2023/04/09 02:56:33;;;;;;;;;36.25;33.75;;;;;-147.17;100.00;-15915.72;4991268;28;56718;-51
2023/04/09 02:58:58;;;;;;;;;33.25;30.50;;;;;-147.17;100.00;-15915.72;4982516;28;51064;-49
2023/04/09 03:01:23;;;;;;;;;41.50;35.00;;;;;-147.17;100.00;-15915.72;4989009;28;51042;-49
2023/04/09 03:03:49;;;;;;;;;34.25;31.75;;;;;-147.17;100.00;-15915.72;4993491;28;52095;-48
2023/04/09 03:06:14;;;;;;;;;36.25;33.75;;;;;-147.17;100.00;-15917.19;4993655;28;51266;-50
2023/04/09 03:08:40;;;;;;;;;34.00;31.50;;;;;-147.17;100.00;-15917.19;4993138;28;50982;-52
2023/04/09 03:11:05;;;;;;;;;34.75;32.50;;;;;-147.17;100.00;-15917.19;4991718;28;50926;-50
2023/04/09 03:13:30;;;;;;;;;35.00;32.25;;;;;-147.17;100.00;-15917.19;4990492;28;51005;-50
2023/04/09 03:15:56;;;;;;;;;41.75;36.50;;;;;-147.17;100.00;-15917.19;4992954;28;51328;-50
2023/04/09 03:18:21;;;;;;;;;35.75;32.25;;;;;-147.17;100.00;-15917.19;4993861;28;51629;-49
2023/04/09 03:20:47;;;;;;;;;33.25;30.50;;;;;-147.17;100.00;-15917.19;4984120;28;51163;-48
2023/04/09 03:23:12;;;;;;;;;39.75;35.50;;;;;-147.17;100.00;-15917.19;4992245;28;51830;-51
2023/04/09 03:25:38;;;;;;;;;32.00;31.25;;;;;-147.17;100.00;-15917.19;4992712;28;51049;-51
2023/04/09 03:28:03;;;;;;;;;34.50;33.50;;;;;-147.17;100.00;-15917.19;4993599;28;51010;-49
2023/04/09 03:30:29;;;;;;;;;37.25;34.50;;;;;-147.17;100.00;-15917.19;4990472;28;51390;-49
2023/04/09 03:32:54;;;;;;;;;37.00;33.25;;;;;-147.17;100.00;-15917.19;4977681;28;53056;-50
2023/04/09 03:35:20;;;;;;;;;41.00;34.00;;;;;-147.17;100.00;-15917.19;4991636;28;51062;-49
2023/04/09 03:37:45;;;;;;;;;35.50;32.25;;;;;-147.17;100.00;-15917.19;4992595;28;50951;-50
2023/04/09 03:40:11;;;;;;;;;38.00;35.25;;;;;-147.17;100.00;-15917.19;4992738;28;51328;-48
2023/04/09 03:42:37;;;;;;;;;35.00;31.50;;;;;-147.17;100.00;-15917.19;4988325;28;51245;-49
2023/04/09 03:45:03;;;;;;;;;40.00;36.00;;;;;-147.17;100.00;-15917.19;4992683;28;51137;-49
2023/04/09 03:47:29;;;;;;;;;36.75;33.50;;;;;-147.17;100.00;-15917.19;4989598;28;51150;-53
2023/04/09 03:49:54;;;;;;;;;38.25;35.00;;;;;-147.17;100.00;-15917.19;4992951;28;50990;-49
2023/04/09 03:52:19;;;;;;;;;41.75;37.00;;;;;-147.17;100.00;-15917.19;4988099;28;51635;-50
2023/04/09 03:54:45;;;;;;;;;36.25;33.75;;;;;-147.17;100.00;-15917.19;4992553;28;51124;-49
2023/04/09 03:57:10;;;;;;;;;32.25;30.75;;;;;-147.17;100.00;-15917.19;4991104;28;51135;-49
2023/04/09 03:59:35;;;;;;;;;41.50;37.75;;;;;-147.17;100.00;-15917.19;4991229;28;51106;-49
2023/04/09 04:02:01;;;;;;;;;43.25;37.50;;;;;-147.17;100.00;-15917.19;4991641;28;52043;-50
2023/04/09 04:04:26;;;;;;;;;46.50;38.50;;;;;-147.17;100.00;-15917.19;4992166;28;56717;-50
2023/04/09 04:06:51;;;;;;;;;42.25;37.00;;;;;-147.17;100.00;-15917.19;4993090;28;51214;-49
2023/04/09 04:09:16;;;;;;;;;30.50;26.25;;;;;-147.17;100.00;-15917.19;4991437;28;51121;-49
2023/04/09 04:11:42;;;;;;;;;40.25;35.00;;;;;-147.17;100.00;-15917.19;4991434;28;52714;-48
2023/04/09 04:14:07;;;;;;;;;40.75;37.00;;;;;-147.17;100.00;-15917.19;4990455;28;51125;-49
2023/04/09 04:16:33;;;;;;;;;44.75;37.00;;;;;-147.17;100.00;-15917.19;4988355;28;51119;-48
2023/04/09 04:18:58;;;;;;;;;40.75;36.50;;;;;-147.17;100.00;-15917.19;4988289;28;50946;-50
2023/04/09 04:21:23;;;;;;;;;44.50;37.50;;;;;-147.17;100.00;-15917.19;4991586;28;51129;-48
2023/04/09 04:23:49;;;;;;;;;43.50;37.25;;;;;-147.17;100.00;-15917.19;4990326;28;51394;-49
2023/04/09 04:26:14;;;;;;;;;54.75;42.25;;;;;-147.17;100.00;-15917.19;4992202;28;50994;-50
2023/04/09 04:28:39;;;;;;;;;47.00;38.50;;;;;-147.17;100.00;-15917.19;4992328;28;50978;-49
2023/04/09 04:31:09;;;;;;;;;54.25;41.50;;;;;-147.17;100.00;-15917.19;4991027;28;52085;-50
2023/04/09 04:33:36;;;;;;;;;46.25;39.00;;;;;-147.17;100.00;-15917.19;4991192;28;51008;-49
2023/04/09 04:36:09;;;;;;;;;45.75;37.50;;;;;-147.17;100.00;-15917.19;4992445;28;51042;-50
2023/04/09 04:38:35;;;;;;;;;44.50;37.75;;;;;-147.17;100.00;-15917.19;4991681;28;51266;-49
2023/04/09 04:41:01;;;;;;;;;40.25;33.00;;;;;-147.17;100.00;-15917.19;4991159;28;51885;-49
2023/04/09 04:43:27;;;;;;;;;45.00;37.50;;;;;-147.17;100.00;-15917.19;4990531;28;51232;-50
2023/04/09 04:45:52;;;;;;;;;45.00;38.25;;;;;-147.17;100.00;-15917.19;4992472;28;51548;-50
2023/04/09 04:48:17;;;;;;;;;37.75;36.25;;;;;-147.17;100.00;-15917.19;4987775;28;51235;-49
2023/04/09 04:50:43;;;;;;;;;43.25;37.50;;;;;-147.17;100.00;-15917.19;4990072;28;61746;-48
2023/04/09 04:53:08;;;;;;;;;44.00;37.50;;;;;-147.17;100.00;-15917.19;4990162;28;51017;-49
2023/04/09 04:55:38;;;;;;;;;41.75;38.00;;;;;-147.17;100.00;-15917.19;5001505;28;51800;-48
2023/04/09 04:58:04;;;;;;;;;42.75;36.50;;;;;-147.17;100.00;-15917.19;4991861;28;51278;-48
2023/04/09 05:00:30;;;;;;;;;33.50;30.50;;;;;-147.17;100.00;-15917.19;4990932;28;51712;-48
2023/04/09 05:02:55;;;;;;;;;39.75;35.75;;;;;-147.17;100.00;-15917.19;4989442;28;51786;-49
2023/04/09 05:05:20;;;;;;;;;39.50;35.50;;;;;-147.17;100.00;-15917.19;4992330;28;51236;-48
2023/04/09 05:07:46;;;;;;;;;45.50;38.00;;;;;-147.17;100.00;-15917.19;4990545;28;51204;-48
2023/04/09 05:10:11;;;;;;;;;40.50;36.00;;;;;-147.17;100.00;-15917.19;4991244;28;52992;-49
2023/04/09 05:12:36;;;;;;;;;44.50;37.25;;;;;-147.17;100.00;-15917.19;4990915;28;51164;-51
2023/04/09 05:15:02;;;;;;;;;37.50;35.25;;;;;-147.17;100.00;-15917.19;4990801;28;51220;-49
2023/04/09 05:17:27;;;;;;;;;39.00;35.75;;;;;-147.17;100.00;-15917.19;4990520;28;51093;-50
2023/04/09 05:19:53;;;;;;;;;39.00;36.50;;;;;-147.17;100.00;-15917.19;4991167;28;51965;-51
2023/04/09 05:22:19;;;;;;;;;46.50;40.50;;;;;-147.17;100.00;-15917.19;4988393;28;51096;-49
2023/04/09 05:24:44;;;;;;;;;47.25;40.00;;;;;-147.17;100.00;-15917.19;4992350;28;51054;-50
2023/04/09 05:27:10;;;;;;;;;44.00;38.25;;;;;-147.17;100.00;-15917.19;4995792;28;51091;-52
2023/04/09 05:29:35;;;;;;;;;44.75;38.50;;;;;-147.17;100.00;-15917.19;4994465;28;53275;-50
2023/04/09 05:32:01;;;;;;;;;42.25;35.50;;;;;-147.17;100.00;-15917.19;4993867;28;51083;-48
2023/04/09 05:34:26;;;;;;;;;47.50;41.00;;;;;-147.17;100.00;-15917.19;4995566;28;50863;-51
2023/04/09 05:36:52;;;;;;;;;45.25;39.00;;;;;-147.17;100.00;-15917.19;4994675;28;51457;-51
2023/04/09 05:39:17;;;;;;;;;38.75;35.75;;;;;-147.17;100.00;-15917.19;4994322;28;51025;-50
2023/04/09 05:41:43;;;;;;;;;40.50;35.75;;;;;-147.17;100.00;-15917.19;4993289;28;55240;-50
2023/04/09 05:44:12;;;;;;;;;44.50;37.25;;;;;-147.17;100.00;-15917.19;4989775;28;51121;-50
2023/04/09 05:46:37;;;;;;;;;40.75;37.25;;;;;-147.17;100.00;-15917.19;4989931;28;50990;-50
2023/04/09 05:49:03;;;;;;;;;42.50;37.50;;;;;-147.17;100.00;-15917.19;4988156;28;51617;-50
2023/04/09 05:51:28;;;;;;;;;39.25;36.50;;;;;-147.17;100.00;-15917.19;4986771;28;51099;-50
2023/04/09 05:53:53;;;;;;;;;44.00;37.00;;;;;-147.17;100.00;-15917.19;4990685;28;51489;-50
2023/04/09 05:56:21;;;;;;;;;47.00;37.50;;;;;-147.17;100.00;-15917.19;4998762;28;53145;-52
2023/04/09 05:58:47;;;;;;;;;40.25;36.50;;;;;-147.17;100.00;-15917.19;4983531;28;51735;-49
2023/04/09 06:01:12;;;;;;;;;43.00;37.50;;;;;-147.17;100.00;-15917.19;4980977;28;51475;-51
2023/04/09 06:03:38;;;;;;;;;37.25;34.50;;;;;-147.17;100.00;-15917.19;4992234;28;50994;-49
2023/04/09 06:06:03;;;;;;;;;38.00;36.00;;;;;-147.17;100.00;-15917.19;4992210;28;51524;-53
2023/04/09 06:08:29;;;;;;;;;45.00;38.75;;;;;-147.17;100.00;-15917.19;4992759;28;51223;-50
2023/04/09 06:10:54;;;;;;;;;40.25;33.75;;;;;-147.17;100.00;-15917.19;4993317;28;51089;-51
2023/04/09 06:13:20;;;;;;;;;50.25;38.50;;;;;-147.17;100.00;-15917.19;4988249;28;51103;-49
2023/04/09 06:15:45;;;;;;;;;39.50;35.75;;;;;-147.17;100.00;-15917.19;4993460;28;51437;-49
2023/04/09 06:18:11;;;;;;;;;43.00;38.25;;;;;-147.17;100.00;-15917.19;4992911;28;51598;-50
2023/04/09 06:20:36;;;;;;;;;42.75;37.50;;;;;-147.17;100.00;-15917.19;4992628;28;51164;-51
2023/04/09 06:23:01;;;;;;;;;45.25;37.25;;;;;-147.17;100.00;-15917.19;4991439;28;51088;-52
2023/04/09 06:25:26;;;;;;;;;50.25;40.00;;;;;-147.17;100.00;-15917.19;4993817;28;51151;-49
2023/04/09 06:27:52;;;;;;;;;47.50;38.25;;;;;-147.17;100.00;-15917.19;4992637;28;51741;-50
2023/04/09 06:30:17;;;;;;;;;45.25;36.50;;;;;-147.17;100.00;-15917.19;4992956;28;51260;-51
2023/04/09 06:32:44;;;;;;;;;45.00;38.25;;;;;-147.17;100.00;-15917.19;4989927;28;51455;-50
2023/04/09 06:35:09;;;;;;;;;43.50;35.50;;;;;-147.17;100.00;-15917.19;4992668;28;51215;-49
2023/04/09 06:37:35;;;;;;;;;39.75;35.25;;;;;-147.17;100.00;-15420.25;4992111;28;52673;-49
2023/04/09 06:40:00;;;;;;;;;43.00;37.25;;;;;-147.17;100.00;-13437.75;4993151;28;50997;-52
2023/04/09 06:42:25;;;;;;;;;47.75;40.75;;;;;-147.17;100.00;-11454.25;4992606;28;51072;-51
2023/04/09 06:44:51;;;;;;;;;43.75;36.25;;;;;-147.17;100.00;-10214.00;4993036;28;51266;-47
2023/04/09 06:47:16;;;;;;;;;44.75;38.75;;;;;-147.17;100.00;-8477.03;4993399;28;51976;-51
2023/04/09 06:49:41;;;;;;;;;46.75;38.00;;;;;-147.17;100.00;-6987.56;4991764;28;51057;-49
2023/04/09 06:52:07;;;;;;;;;48.50;39.75;;;;;-147.17;100.00;-5000.69;4989809;28;50999;-51
2023/04/09 06:54:32;;;;;;;;;48.00;38.25;;;;;-147.17;100.00;-1769.84;4992920;28;51395;-50
2023/04/09 06:56:57;;;;;;;;;44.75;37.50;;;;;-147.17;100.00;219.72;4993428;28;52732;-51
2023/04/09 06:59:22;;;;;;;;;48.75;40.25;;;;;-147.17;100.00;3206.00;4980530;28;62032;-49
2023/04/09 07:01:48;;;;;;;;;48.00;40.25;;;;;-147.17;100.00;5945.44;4991677;28;50964;-47
2023/04/09 07:04:13;;;;;;;;;44.25;37.25;;;;;-147.17;100.00;10432.38;4992790;28;51203;-49
2023/04/09 07:06:39;;;;;;;;;52.25;43.50;;;;;-147.17;100.00;12927.34;4993002;28;51785;-49
2023/04/09 07:09:05;;;;;;;;;46.50;37.25;;;;;-147.17;100.00;13176.94;4991939;28;51156;-52
2023/04/09 07:11:31;;;;;;;;;41.25;36.50;;;;;-147.17;100.00;16922.66;4991123;28;51081;-52
2023/04/09 07:13:57;;;;;;;;;44.25;37.50;;;;;-147.17;100.00;20171.88;4992428;28;51134;-50
2023/04/09 07:16:22;;;;;;;;;44.25;36.75;;;;;-147.17;100.00;20922.09;4992963;28;51139;-52
2023/04/09 07:18:47;;;;;;;;;44.25;37.25;;;;;-147.17;100.00;23173.59;4991486;28;51104;-51
2023/04/09 07:21:13;;;;;;;;;49.00;40.00;;;;;-147.17;100.00;26498.47;4991808;28;51977;-48
2023/04/09 07:23:38;;;;;;;;;45.50;37.50;;;;;-147.17;100.00;28988.09;4991500;28;51683;-49
2023/04/09 07:26:04;;;;;;;;;44.75;37.50;;;;;-147.17;100.00;31851.59;4992822;28;51049;-49
2023/04/09 07:28:30;;;;;;;;;39.25;34.50;;;;;-147.17;100.00;33842.75;4973748;28;51059;-50
2023/04/09 07:30:55;;;;;;;;;43.00;36.50;;;;;-147.17;100.00;35982.06;4985895;28;51562;-50
2023/04/09 07:33:20;;;;;;;;;46.50;38.75;;;;;-147.17;100.00;36731.38;4987040;28;51189;-49
2023/04/09 07:35:46;;;;;;;;;45.75;36.25;;;;;-147.17;100.00;37671.16;4992234;28;51172;-51
2023/04/09 07:38:11;;;;;;;;;41.00;36.00;;;;;-147.17;100.00;38285.41;4991140;28;50962;-51
2023/04/09 07:40:37;;;;;;;;;46.75;38.00;;;;;-147.17;100.00;39131.34;4991586;28;51351;-48
2023/04/09 07:43:03;;;;;;;;;38.25;34.00;;;;;-147.17;100.00;39449.34;4992894;28;51399;-52
2023/04/09 07:45:28;;;;;;;;;45.00;37.00;;;;;-147.17;100.00;39498.44;4992587;28;51716;-52
2023/04/09 07:47:53;;;;;;;;;38.50;34.75;;;;;-147.17;100.00;39851.81;4991898;28;51470;-50
2023/04/09 07:50:19;;;;;;;;;39.50;35.25;;;;;-147.17;100.00;40303.41;4989704;28;51132;-51
2023/04/09 07:52:45;;;;;;;;;40.25;35.25;;;;;-147.17;100.00;40731.47;4991527;28;51353;-51
2023/04/09 07:55:10;;;;;;;;;37.75;32.75;;;;;-147.17;100.00;41544.56;4991857;28;51912;-50
2023/04/09 07:57:36;;;;;;;;;35.75;32.75;;;;;-147.17;100.00;42467.81;4983300;28;51144;-49
2023/04/09 08:00:02;;;;;;;;;38.00;33.50;;;;;-147.17;100.00;43126.03;4990538;28;51555;-49
2023/04/09 08:02:28;;;;;;;;;40.50;34.50;;;;;-147.17;100.00;43412.94;4991121;28;51374;-49
2023/04/09 08:04:54;;;;;;;;;34.50;32.00;;;;;-147.17;100.00;43652.69;4988624;28;53205;-50
2023/04/09 08:07:19;;;;;;;;;41.75;35.00;;;;;-147.17;100.00;43599.63;4991048;28;52414;-52
2023/04/09 08:09:45;;;;;;;;;36.00;32.75;;;;;-147.17;100.00;43739.16;4991425;28;51679;-50
2023/04/09 08:12:10;;;;;;;;;37.25;34.00;;;;;-147.17;100.00;43570.13;4990807;28;50990;-57
2023/04/09 08:14:36;;;;;;;;;39.50;34.50;;;;;-147.17;100.00;43145.69;4991049;28;57982;-57
2023/04/09 08:17:01;;;;;;;;;40.75;35.25;;;;;-147.17;100.00;42772.34;4992097;28;51069;-58
2023/04/09 08:19:26;;;;;;;;;32.25;30.50;;;;;-147.17;100.00;43108.34;4990673;28;51648;-57
2023/04/09 08:21:52;;;;;;;;;49.25;40.75;;;;;-147.17;100.00;42803.78;4990592;28;51184;-57
2023/04/09 08:24:17;;;;;;;;;39.25;34.00;;;;;-147.17;100.00;42456.03;4991556;28;51461;-57
2023/04/09 08:26:43;;;;;;;;;32.50;30.00;;;;;-147.17;100.00;42192.78;4990660;28;51149;-57
2023/04/09 08:29:10;;;;;;;;;35.25;33.00;;;;;-147.17;100.00;42269.41;4991152;28;50997;-56
2023/04/09 08:31:36;;;;;;;;;36.25;33.00;;;;;-147.17;100.00;41837.22;4991323;28;51130;-57
2023/04/09 08:34:02;;;;;;;;;36.75;33.00;;;;;-147.17;100.00;41519.03;4991756;28;52219;-57
2023/04/09 08:36:27;;;;;;;;;38.50;32.75;;;;;-147.17;100.00;41350.13;4990667;28;51357;-56
2023/04/09 08:38:54;;;;;;;;;31.50;30.00;;;;;-147.17;100.00;40757.00;4990535;28;51648;-58
2023/04/09 08:41:23;;;;;;;;;34.25;32.00;;;;;-147.17;100.00;41198.88;4989773;28;50996;-56
2023/04/09 08:43:50;;;;;;;;;38.00;33.25;;;;;-147.17;100.00;42053.31;4990243;28;52124;-57
2023/04/09 08:46:16;;;;;;;;;38.50;34.00;;;;;-147.17;100.00;41819.56;4989578;28;51121;-57
2023/04/09 08:48:45;;;;;;;;;35.00;31.25;;;;;-147.17;100.00;41357.97;4985417;28;51763;-56
2023/04/09 08:51:19;;;;;;;;;34.25;31.00;;;;;-147.17;100.00;41208.69;4990660;28;51284;-58
2023/04/09 08:53:46;;;;;;;;;37.50;33.25;;;;;-147.17;100.00;40819.84;4991462;28;51025;-55
2023/04/09 08:56:13;;;;;;;;;35.25;32.25;;;;;-147.17;100.00;40541.00;4986880;28;51098;-56
2023/04/09 08:58:44;;;;;;;;;27.25;26.75;;;;;-147.17;100.00;40364.28;4986394;28;51278;-55
2023/04/09 09:01:29;;;;;;;;;32.25;30.25;;;;;-147.17;100.00;40676.50;4987915;28;52583;-54
2023/04/09 09:04:04;;;;;;;;;30.25;29.00;;;;;-147.17;100.00;40643.13;4983815;28;51929;-56
2023/04/09 09:06:32;;;;;;;;;34.75;32.25;;;;;-147.17;100.00;40358.38;4988441;28;51147;-56
2023/04/09 09:09:17;;;;;;;;;28.25;27.75;;;;;-147.17;100.00;39663.34;4990527;28;51170;-56
2023/04/09 09:11:49;;;;;;;;;29.00;29.00;;;;;-147.17;100.00;39598.56;4990793;28;51227;-57
2023/04/09 09:14:17;;;;;;;;;32.25;31.00;;;;;-147.17;100.00;39863.59;4990616;28;52811;-55
2023/04/09 09:17:02;;;;;;;;;36.25;33.00;;;;;-147.17;100.00;40061.91;4989671;28;51086;-56
2023/04/09 09:19:29;;;;;;;;;31.50;29.00;;;;;-147.17;100.00;39653.53;4980540;28;51255;-57
2023/04/09 09:22:01;;;;;;;;;27.25;27.00;;;;;-147.17;100.00;39213.78;4987850;28;51252;-56
2023/04/09 09:24:27;;;;;;;;;28.00;26.50;;;;;-147.17;100.00;38348.19;4990460;28;51600;-55
2023/04/09 09:26:56;;;;;;;;;37.50;32.50;;;;;-147.17;100.00;38499.31;4988826;28;51076;-57
2023/04/09 09:29:21;;;;;;;;;27.50;26.25;;;;;-147.17;100.00;39256.97;4990498;28;51269;-55
2023/04/09 09:31:49;;;;;;;;;25.00;24.75;;;;;-147.17;100.00;39885.19;4990363;28;51100;-58
2023/04/09 09:34:16;;;;;;;;;33.75;31.25;;;;;-147.17;100.00;39912.69;4990227;28;51293;-56
2023/04/09 09:36:42;;;;;;;;;25.50;25.25;;;;;-147.17;100.00;39961.75;4989778;28;51354;-57
2023/04/09 09:39:11;;;;;;;;;24.25;24.25;;;;;-147.17;100.00;39845.94;4990027;28;51046;-56
2023/04/09 09:41:39;;;;;;;;;27.25;26.75;;;;;-147.17;100.00;39129.38;4989757;28;51200;-56
2023/04/09 09:44:06;;;;;;;;;27.75;27.25;;;;;-147.17;100.00;38487.53;4985018;28;51007;-57
2023/04/09 09:46:39;;;;;;;;;27.75;26.50;;;;;-147.17;100.00;38411.00;4988805;28;51261;-56
2023/04/09 09:49:06;;;;;;;;;25.75;24.75;;;;;-147.17;100.00;38383.53;4990421;28;51537;-55
2023/04/09 09:51:35;;;;;;;;;23.50;22.75;;;;;-147.17;100.00;38228.47;4990229;28;51290;-56
2023/04/09 09:54:01;;;;;;;;;30.75;29.50;;;;;-147.17;100.00;37810.50;4990913;28;51647;-56
2023/04/09 09:56:37;;;;;;;;;26.50;22.50;;;;;-147.17;100.00;36925.59;4988862;28;51191;-56
2023/04/09 09:59:29;;;;;;;;;27.00;25.50;;;;;-147.17;100.00;38053.81;4989278;28;51092;-50
2023/04/09 10:02:06;;;;;;;;;22.25;20.75;;;;;-147.17;100.00;39661.38;4978599;28;51118;-50
2023/04/09 10:04:35;;;;;;;;;25.00;23.25;;;;;-147.17;100.00;39893.03;4990552;28;52753;-50
2023/04/09 10:07:04;;;;;;;;;18.75;18.50;;;;;-147.17;100.00;39810.59;4988963;28;50846;-50
2023/04/09 10:09:31;;;;;;;;;19.25;18.25;;;;;-147.17;100.00;39150.97;4988761;28;51244;-50
2023/04/09 10:11:58;;;;;;;;;24.50;21.25;;;;;-147.17;100.00;38059.72;4993699;28;51101;-51
2023/04/09 10:14:25;;;;;;;;;22.50;21.75;;;;;-147.17;100.00;36858.88;4993546;28;52319;-52
2023/04/09 10:16:51;;;;;;;;;21.50;18.25;;;;;-147.17;100.00;36113.47;4986324;28;51371;-53
2023/04/09 10:19:17;;;;;;;;;20.00;17.75;;;;;-147.17;100.00;35729.03;4990119;28;52729;-54
2023/04/09 10:22:04;;;;;;;;;20.75;18.75;;;;;-147.17;100.00;36737.25;4990157;28;51160;-53
2023/04/09 10:24:32;;;;;;;;;20.50;19.25;;;;;-147.17;100.00;37659.41;4990906;28;52014;-55
2023/04/09 10:27:09;;;;;;;;;21.00;19.75;;;;;-147.17;100.00;37989.06;4989410;28;51148;-52
2023/04/09 10:29:47;;;;;;;;;21.00;21.00;;;;;-147.17;100.00;37816.38;4992330;28;51129;-52
2023/04/09 10:32:22;;;;;;;;;23.25;22.25;;;;;-147.17;100.00;37779.09;4993870;28;51022;-52
2023/04/09 10:34:49;;;;;;;;;22.25;22.25;;;;;-147.17;100.00;37777.13;4990676;28;51230;-52
2023/04/09 10:37:22;;;;;;;;;23.50;22.50;;;;;-147.17;100.00;38515.03;4987286;28;51214;-54
2023/04/09 10:39:50;;;;;;;;;19.50;18.50;;;;;-147.17;100.00;39571.06;4991888;28;51143;-53
2023/04/09 10:42:26;;;;;;;;;25.00;24.75;;;;;-147.17;100.00;39732.06;4990718;28;51296;-51
2023/04/09 10:45:09;;;;;;;;;28.50;27.50;;;;;-147.17;100.00;38695.59;4993556;28;51184;-54
2023/04/09 10:47:37;;;;;;;;;19.00;19.00;;;;;-147.17;100.00;37573.06;4991821;28;51289;-53
2023/04/09 10:50:13;;;;;;;;;25.25;24.75;;;;;-147.17;100.00;36152.69;4987770;28;51153;-51